Time;durP1;ratioP1;P1;durP2;ratioP2;P2;SDS_P1;SDS_P2;PMS_P1;PMS_P2;Temp;Humidity;BMP_temperature;BMP_pressure;BME280_temperature;BME280_humidity;BME280_pressure;Samples;Min_cycle;Max_cycle;Signal;HPM_P1;HPM_P2
2022/07/28 00:02:03;;;;;;;9.90;7.00;;;;;;;19.33;100.00;97852.13;5012855;28;20071;-73
2022/07/28 00:04:29;;;;;;;9.88;7.00;;;;;;;19.14;100.00;97841.66;4995202;28;20543;-74
2022/07/28 00:06:54;;;;;;;10.13;7.10;;;;;;;19.17;100.00;97847.31;5012507;28;20025;-74
2022/07/28 00:09:19;;;;;;;12.27;6.65;;;;;;;19.17;100.00;97852.88;5012141;28;20164;-74
2022/07/28 00:11:45;;;;;;;10.35;7.22;;;;;;;19.05;100.00;97863.22;5012771;28;20029;-73
2022/07/28 00:14:10;;;;;;;13.23;7.88;;;;;;;19.11;100.00;97859.03;5012719;28;20037;-73
2022/07/28 00:16:36;;;;;;;11.95;8.23;;;;;;;19.08;100.00;97866.09;5012582;28;20037;-73
2022/07/28 00:19:02;;;;;;;12.85;8.15;;;;;;;19.06;100.00;97864.84;5012624;28;21306;-73
2022/07/28 00:21:28;;;;;;;11.60;7.47;;;;;;;19.04;100.00;97867.97;5012452;28;20026;-73
2022/07/28 00:23:53;;;;;;;14.88;7.88;;;;;;;18.86;100.00;97860.31;5012501;28;20033;-73
2022/07/28 00:26:18;;;;;;;12.65;8.65;;;;;;;18.85;100.00;97862.25;5012491;28;20032;-73
2022/07/28 00:28:44;;;;;;;14.10;9.18;;;;;;;18.76;100.00;97858.81;5012291;28;20057;-74
2022/07/28 00:31:09;;;;;;;13.20;8.73;;;;;;;18.78;100.00;97859.28;4994999;28;20506;-73
2022/07/28 00:33:34;;;;;;;12.52;8.85;;;;;;;18.73;100.00;97853.19;5012240;28;20065;-73
2022/07/28 00:36:00;;;;;;;13.63;9.30;;;;;;;18.86;100.00;97836.13;5012087;28;20045;-73
2022/07/28 00:38:25;;;;;;;12.73;8.48;;;;;;;18.82;100.00;97849.09;5012102;28;20049;-73
2022/07/28 00:43:35;;;;;;;12.13;8.00;;;;;;;18.83;100.00;97842.38;5012121;28;20522;-73
2022/07/28 00:46:00;;;;;;;10.73;8.18;;;;;;;18.73;100.00;97840.91;5011958;28;20034;-74
2022/07/28 00:48:26;;;;;;;11.63;7.72;;;;;;;18.77;100.00;97838.25;5012021;28;20016;-73
2022/07/28 00:50:51;;;;;;;11.73;7.93;;;;;;;18.66;100.00;97837.13;5012290;28;20026;-73
2022/07/28 00:53:17;;;;;;;10.57;7.95;;;;;;;18.60;100.00;97838.53;5011892;28;20068;-74
2022/07/28 00:55:42;;;;;;;8.07;6.80;;;;;;;18.62;100.00;97836.22;5012064;28;20112;-73
2022/07/28 00:58:07;;;;;;;9.00;7.55;;;;;;;18.53;100.00;97850.22;5012051;28;20191;-74
2022/07/28 01:00:33;;;;;;;9.05;7.20;;;;;;;18.47;100.00;97834.16;5011941;28;20502;-74
2022/07/28 01:02:58;;;;;;;12.63;7.18;;;;;;;18.47;100.00;97837.72;5011371;28;20487;-73
2022/07/28 01:05:29;;;;;;;7.85;6.63;;;;;;;18.32;100.00;97843.19;5011796;28;20030;-74
2022/07/28 01:08:02;;;;;;;12.68;8.40;;;;;;;18.32;100.00;97834.88;5011734;28;20029;-73
2022/07/28 01:10:43;;;;;;;8.50;6.97;;;;;;;18.36;100.00;97844.09;5011664;28;20045;-73
2022/07/28 01:13:21;;;;;;;16.75;8.43;;;;;;;18.43;100.00;97839.59;5011395;28;20033;-73
2022/07/28 01:16:01;;;;;;;9.95;7.13;;;;;;;18.49;100.00;97842.91;5011565;28;20117;-74
2022/07/28 01:18:41;;;;;;;10.52;7.68;;;;;;;18.63;100.00;97829.53;5011437;28;20461;-73
2022/07/28 01:21:14;;;;;;;8.50;7.30;;;;;;;18.52;100.00;97829.19;5011358;28;20026;-73
2022/07/28 01:23:55;;;;;;;8.98;7.63;;;;;;;18.47;100.00;97828.63;5011293;28;20479;-73
2022/07/28 01:26:47;;;;;;;10.43;7.72;;;;;;;18.51;100.00;97824.03;5011285;28;20758;-74
2022/07/28 01:29:45;;;;;;;10.98;7.22;;;;;;;18.47;100.00;97834.16;5011510;28;20041;-73
2022/07/28 01:32:24;;;;;;;8.60;6.55;;;;;;;18.52;100.00;97831.97;4993802;28;20506;-73
2022/07/28 01:35:09;;;;;;;10.98;7.20;;;;;;;18.42;100.00;97837.97;5011255;28;20049;-73
2022/07/28 01:37:40;;;;;;;13.32;7.15;;;;;;;18.44;100.00;97832.09;5011356;28;20099;-73
2022/07/28 01:40:07;;;;;;;10.10;7.28;;;;;;;18.49;100.00;97843.75;5011034;28;20088;-73
2022/07/28 01:42:37;;;;;;;9.35;7.00;;;;;;;18.45;100.00;97842.78;5011047;28;20022;-73
2022/07/28 01:45:04;;;;;;;9.55;7.07;;;;;;;18.51;100.00;97830.34;5011268;28;20034;-73
2022/07/28 01:47:31;;;;;;;10.98;7.55;;;;;;;18.52;100.00;97837.50;5011223;28;20030;-73
2022/07/28 01:50:03;;;;;;;10.05;6.85;;;;;;;18.62;100.00;97833.44;5011032;28;20025;-74
2022/07/28 01:52:30;;;;;;;12.25;7.50;;;;;;;18.69;100.00;97837.25;5011148;28;20108;-74
2022/07/28 01:54:57;;;;;;;10.98;7.85;;;;;;;18.68;100.00;97834.81;5010886;28;20026;-74
2022/07/28 01:57:24;;;;;;;12.10;8.07;;;;;;;18.57;100.00;97828.97;5010949;28;20121;-73
2022/07/28 01:59:51;;;;;;;10.65;7.05;;;;;;;18.52;100.00;97829.19;5010767;28;20041;-74
2022/07/28 02:02:19;;;;;;;7.93;6.82;;;;;;;18.45;100.00;97819.84;5010698;28;20387;-73
2022/07/28 02:04:48;;;;;;;10.05;6.68;;;;;;;18.54;100.00;97823.31;5010887;28;20054;-73
2022/07/28 02:07:15;;;;;;;8.38;7.03;;;;;;;18.59;100.00;97826.66;5010856;28;20037;-74
2022/07/28 02:09:43;;;;;;;9.00;7.28;;;;;;;18.51;100.00;97830.34;5010599;28;20030;-73
2022/07/28 02:12:11;;;;;;;9.02;7.47;;;;;;;18.53;100.00;97827.25;5011581;28;20065;-74
2022/07/28 02:14:37;;;;;;;11.05;8.05;;;;;;;18.46;100.00;97827.81;4998218;28;20037;-74
2022/07/28 02:17:09;;;;;;;9.70;7.03;;;;;;;18.36;100.00;97828.28;5012569;28;20056;-74
2022/07/28 02:19:38;;;;;;;9.02;7.30;;;;;;;18.49;100.00;97826.28;5010930;28;20417;-73
2022/07/28 02:22:05;;;;;;;10.45;7.00;;;;;;;18.61;100.00;97823.50;5010434;28;20087;-73
2022/07/28 02:24:32;;;;;;;10.15;6.88;;;;;;;18.36;100.00;97827.47;5010803;28;20030;-74
2022/07/28 02:26:59;;;;;;;9.50;6.93;;;;;;;18.40;100.00;97833.94;4992872;28;20526;-74
2022/07/28 02:29:27;;;;;;;9.85;7.35;;;;;;;18.47;100.00;97834.16;5010457;28;20474;-73
2022/07/28 02:32:19;;;;;;;9.40;6.97;;;;;;;18.43;100.00;97816.59;5013038;28;20021;-74
2022/07/28 02:34:48;;;;;;;8.57;7.10;;;;;;;18.45;100.00;97823.41;5014440;28;20034;-72
2022/07/28 02:37:16;;;;;;;11.00;7.25;;;;;;;18.50;100.00;97827.94;5014442;28;20026;-72
2022/07/28 02:39:45;;;;;;;8.00;6.72;;;;;;;18.51;100.00;97827.56;5014373;28;20050;-72
2022/07/28 02:42:21;;;;;;;12.52;7.68;;;;;;;18.43;100.00;97831.28;5014555;28;20083;-72
2022/07/28 02:44:56;;;;;;;9.15;6.88;;;;;;;18.38;100.00;97819.63;5014360;28;20033;-72
2022/07/28 02:47:24;;;;;;;9.03;6.83;;;;;;;18.38;100.00;97822.41;5014336;28;20026;-72
2022/07/28 02:49:51;;;;;;;10.65;7.85;;;;;;;18.25;100.00;97816.06;5014149;28;20022;-72
2022/07/28 02:52:21;;;;;;;8.60;6.85;;;;;;;18.33;100.00;97828.97;5014074;28;20034;-72
2022/07/28 02:54:48;;;;;;;9.88;8.30;;;;;;;18.37;100.00;97823.56;5014211;28;20391;-72
2022/07/28 02:57:15;;;;;;;10.40;7.22;;;;;;;18.36;100.00;97827.47;5014250;28;20033;-73
2022/07/28 02:59:42;;;;;;;9.07;6.60;;;;;;;18.41;100.00;97832.78;5013863;28;20475;-72
2022/07/28 03:02:08;;;;;;;9.27;7.45;;;;;;;18.29;100.00;97838.34;5014034;28;20483;-72
2022/07/28 03:07:18;;;;;;;10.13;7.40;;;;;;;18.28;100.00;97839.50;5014324;28;20037;-72
2022/07/28 03:09:45;;;;;;;10.30;7.28;;;;;;;18.25;100.00;97843.78;5013865;28;20434;-72
2022/07/28 03:12:11;;;;;;;9.38;7.22;;;;;;;18.01;100.00;97844.56;5013960;28;20036;-72
2022/07/28 03:14:36;;;;;;;12.20;6.85;;;;;;;17.92;100.00;97841.13;5013779;28;20037;-72
2022/07/28 03:17:03;;;;;;;11.95;8.15;;;;;;;17.79;100.00;97847.00;5013880;28;20029;-72
2022/07/28 03:19:28;;;;;;;10.85;7.82;;;;;;;17.71;100.00;97836.84;5013801;28;20030;-72
2022/07/28 03:21:54;;;;;;;10.65;8.23;;;;;;;17.73;100.00;97843.66;5013683;28;20037;-72
2022/07/28 03:24:24;;;;;;;8.77;7.30;;;;;;;17.75;100.00;97849.66;5013702;28;20021;-72
2022/07/28 03:26:59;;;;;;;9.40;7.80;;;;;;;17.76;100.00;97845.72;5013389;28;20112;-72
2022/07/28 03:29:27;;;;;;;10.13;8.55;;;;;;;17.89;100.00;97850.13;5013686;28;20465;-72
2022/07/28 03:31:55;;;;;;;8.23;6.97;;;;;;;17.91;100.00;97858.91;5013569;28;20026;-72
2022/07/28 03:34:20;;;;;;;12.15;8.43;;;;;;;17.92;100.00;97857.72;5013460;28;20030;-72
2022/07/28 03:36:49;;;;;;;8.20;7.07;;;;;;;17.94;100.00;97865.69;5013450;28;20032;-72
2022/07/28 03:39:17;;;;;;;9.77;7.28;;;;;;;18.02;100.00;97868.34;5013236;28;20053;-72
2022/07/28 03:41:44;;;;;;;11.23;7.60;;;;;;;18.05;100.00;97862.13;5013259;28;20487;-72
2022/07/28 03:44:12;;;;;;;9.15;7.13;;;;;;;17.95;100.00;97857.03;5013399;28;20084;-72
2022/07/28 03:46:44;;;;;;;9.27;7.43;;;;;;;18.06;100.00;97869.28;5013353;28;20034;-72
2022/07/28 03:49:10;;;;;;;9.57;6.78;;;;;;;18.10;100.00;97872.97;5013255;28;20120;-72
2022/07/28 03:51:35;;;;;;;8.95;7.03;;;;;;;18.10;100.00;97875.75;5013083;28;20117;-73
2022/07/28 03:54:01;;;;;;;9.10;7.13;;;;;;;18.25;100.00;97874.22;5012982;28;20129;-72
2022/07/28 03:56:26;;;;;;;8.65;6.70;;;;;;;18.30;100.00;97895.31;5012996;28;20108;-72
2022/07/28 03:58:51;;;;;;;11.45;7.65;;;;;;;18.43;100.00;97888.63;5013080;28;20025;-72
2022/07/28 04:01:17;;;;;;;9.77;7.05;;;;;;;18.45;100.00;97887.13;5013058;28;20032;-72
2022/07/28 04:03:42;;;;;;;7.90;6.88;;;;;;;18.53;100.00;97896.50;5013110;28;20022;-73
2022/07/28 04:06:07;;;;;;;8.20;7.20;;;;;;;18.40;100.00;97889.31;5012852;28;20076;-73
2022/07/28 04:08:33;;;;;;;8.85;7.13;;;;;;;18.37;100.00;97896.38;5012990;28;20058;-73
2022/07/28 04:10:58;;;;;;;9.10;7.25;;;;;;;18.38;100.00;97897.19;5012890;28;20466;-73
2022/07/28 04:13:23;;;;;;;9.25;6.82;;;;;;;18.47;100.00;97904.22;5012856;28;20030;-73
2022/07/28 04:15:49;;;;;;;9.77;7.43;;;;;;;18.38;100.00;97908.25;5012776;28;20021;-73
2022/07/28 04:18:14;;;;;;;12.95;7.68;;;;;;;18.33;100.00;97914.84;5012702;28;20494;-73
2022/07/28 04:20:39;;;;;;;8.35;7.20;;;;;;;18.36;100.00;97916.91;5012936;28;20030;-73
2022/07/28 04:23:05;;;;;;;8.05;6.75;;;;;;;18.39;100.00;97918.97;5012389;28;20445;-73
2022/07/28 04:25:31;;;;;;;10.13;6.80;;;;;;;18.49;100.00;97920.47;5012480;28;20036;-72
2022/07/28 04:27:56;;;;;;;13.73;8.23;;;;;;;18.56;100.00;97921.56;5012956;28;20032;-73
2022/07/28 04:30:26;;;;;;;8.48;7.30;;;;;;;18.68;100.00;97923.50;5016015;28;20044;-73
2022/07/28 04:32:53;;;;;;;9.30;6.88;;;;;;;18.77;100.00;97932.47;5015597;28;20454;-73
2022/07/28 04:35:19;;;;;;;11.35;7.80;;;;;;;18.87;100.00;97934.78;5012173;28;20033;-72
2022/07/28 04:37:45;;;;;;;9.80;7.75;;;;;;;18.89;100.00;97934.44;5012142;28;20460;-74
2022/07/28 04:40:12;;;;;;;10.48;7.47;;;;;;;18.99;100.00;97936.72;5012413;28;20625;-73
2022/07/28 04:42:39;;;;;;;8.20;7.22;;;;;;;19.20;100.00;97942.91;5012321;28;20083;-73
2022/07/28 04:45:06;;;;;;;9.93;7.72;;;;;;;19.44;100.00;97942.03;5012033;28;20026;-73
2022/07/28 04:47:32;;;;;;;11.38;7.32;;;;;;;19.58;100.00;97951.53;5012055;28;20033;-72
2022/07/28 04:49:58;;;;;;;9.32;7.00;;;;;;;19.83;100.00;97945.88;5011892;28;20026;-73
2022/07/28 04:52:24;;;;;;;10.30;7.13;;;;;;;20.21;100.00;97938.56;5012233;28;20038;-73
2022/07/28 04:54:49;;;;;;;8.63;6.50;;;;;;;20.32;100.00;97946.38;5011437;28;20474;-72
2022/07/28 04:57:15;;;;;;;12.55;7.72;;;;;;;20.30;100.00;97941.97;5012160;28;20069;-73
2022/07/28 04:59:41;;;;;;;10.32;6.95;;;;;;;20.47;100.00;97938.03;5012312;28;20033;-72
2022/07/28 05:02:07;;;;;;;8.90;6.53;;;;;;;20.68;100.00;97937.72;5011837;28;20030;-73
2022/07/28 05:04:32;;;;;;;10.13;7.13;;;;;;;21.11;100.00;97957.00;5013668;28;20038;-73
2022/07/28 05:06:57;;;;;;;9.32;6.53;;;;;;;21.00;100.00;97961.50;4998405;28;20094;-73
2022/07/28 05:09:23;;;;;;;7.78;6.47;;;;;;;20.77;100.00;97955.00;5015089;28;20018;-73
2022/07/28 05:11:49;;;;;;;8.68;6.93;;;;;;;20.72;100.00;97963.66;5013431;28;20060;-72
2022/07/28 05:14:14;;;;;;;8.90;6.75;;;;;;;21.14;100.00;97963.84;5011522;28;20800;-73
2022/07/28 05:16:39;;;;;;;8.85;7.03;;;;;;;21.41;100.00;97970.38;5011584;28;20112;-73
2022/07/28 05:19:05;;;;;;;9.27;7.47;;;;;;;21.81;100.00;97965.22;5011436;28;20029;-73
2022/07/28 05:21:30;;;;;;;10.40;6.93;;;;;;;22.14;100.00;97961.91;5011640;28;20033;-73
2022/07/28 05:23:55;;;;;;;12.82;7.30;;;;;;;22.04;100.00;97960.53;5011695;28;20024;-73
2022/07/28 05:26:21;;;;;;;14.07;7.25;;;;;;;21.79;100.00;97964.78;4993744;28;20390;-73
2022/07/28 05:28:46;;;;;;;10.52;7.03;;;;;;;21.92;100.00;97966.28;5011420;28;20494;-73
2022/07/28 05:31:11;;;;;;;14.32;7.88;;;;;;;22.03;100.00;97974.81;4993919;28;20060;-73
2022/07/28 05:33:37;;;;;;;13.52;7.43;;;;;;;22.32;100.00;97966.59;5011256;28;20492;-72
2022/07/28 05:36:03;;;;;;;17.20;7.88;;;;;;;22.09;100.00;97967.75;4993559;28;20033;-73
2022/07/28 05:38:30;;;;;;;19.70;6.88;;;;;;;22.01;100.00;97971.59;5011020;28;20411;-73
2022/07/28 05:40:56;;;;;;;17.15;7.18;;;;;;;21.94;100.00;97974.25;5011045;28;20478;-73
2022/07/28 05:43:22;;;;;;;12.45;6.53;;;;;;;21.70;100.00;97967.00;5011525;28;20014;-73
2022/07/28 05:45:48;;;;;;;11.15;6.53;;;;;;;21.61;100.00;97972.00;5011324;28;20038;-73
2022/07/28 05:48:17;;;;;;;7.97;6.15;;;;;;;21.51;100.00;97980.94;5011236;28;20087;-73
2022/07/28 05:50:43;;;;;;;7.82;5.93;;;;;;;21.36;100.00;97966.69;5010923;28;20037;-73
2022/07/28 05:53:08;;;;;;;10.18;6.93;;;;;;;21.44;100.00;97969.66;5011046;28;20026;-73
2022/07/28 05:55:33;;;;;;;9.93;6.57;;;;;;;21.65;100.00;97970.06;5011143;28;20025;-73
2022/07/28 05:58:01;;;;;;;9.52;6.35;;;;;;;21.52;100.00;97972.19;5011025;28;20028;-73
2022/07/28 06:00:27;;;;;;;9.85;6.32;;;;;;;21.55;100.00;97963.13;4993441;28;20074;-73
2022/07/28 06:02:52;;;;;;;13.60;7.35;;;;;;;21.75;100.00;97966.69;5010869;28;20144;-72
2022/07/28 06:05:20;;;;;;;8.40;6.13;;;;;;;21.54;100.00;97969.06;5010096;28;20032;-74
2022/07/28 06:07:47;;;;;;;10.05;6.28;;;;;;;21.65;100.00;97965.31;5010627;28;20047;-73
2022/07/28 06:10:15;;;;;;;9.05;6.40;;;;;;;21.86;100.00;97959.38;5010806;28;20484;-73
2022/07/28 06:12:43;;;;;;;7.38;5.80;;;;;;;22.62;98.31;97969.47;5010684;28;20080;-73
2022/07/28 06:15:16;;;;;;;9.05;5.82;;;;;;;24.13;89.13;97969.97;5010804;28;20029;-73
2022/07/28 06:17:42;;;;;;;12.60;6.63;;;;;;;24.82;83.88;97967.41;5010834;28;20061;-72
2022/07/28 06:20:09;;;;;;;8.13;6.40;;;;;;;23.80;88.09;97958.81;5010843;28;20033;-73
2022/07/28 06:22:43;;;;;;;7.97;6.45;;;;;;;23.28;92.88;97965.31;5010528;28;20030;-73
2022/07/28 06:25:16;;;;;;;7.18;6.15;;;;;;;23.01;95.30;97967.34;5010694;28;20041;-72
2022/07/28 06:27:44;;;;;;;9.98;6.85;;;;;;;22.75;97.67;97956.16;5010697;28;20113;-73
2022/07/28 06:30:10;;;;;;;8.13;6.60;;;;;;;22.74;99.17;97954.56;5010713;28;20024;-73
2022/07/28 06:32:35;;;;;;;10.95;6.78;;;;;;;22.85;98.93;97959.13;5010276;28;20026;-73
2022/07/28 06:35:00;;;;;;;11.32;6.43;;;;;;;22.79;99.35;97963.44;5010579;28;20423;-73
2022/07/28 06:37:26;;;;;;;8.23;6.05;;;;;;;22.98;97.28;97956.13;5010461;28;20029;-73
2022/07/28 06:39:51;;;;;;;9.60;6.07;;;;;;;23.01;95.77;97958.97;5009444;28;20054;-74
2022/07/28 06:42:17;;;;;;;9.30;7.80;;;;;;;23.08;94.06;97969.44;5010607;28;20054;-73
2022/07/28 06:44:42;;;;;;;9.60;6.28;;;;;;;23.45;92.87;97973.16;5010376;28;20026;-73
2022/07/28 06:47:07;;;;;;;6.80;5.57;;;;;;;23.51;89.13;97966.06;5013809;28;20038;-73
2022/07/28 06:49:32;;;;;;;10.57;5.60;;;;;;;24.11;86.72;97975.16;5012625;28;20034;-73
2022/07/28 06:51:58;;;;;;;9.40;6.03;;;;;;;23.79;88.17;97973.97;5010538;28;20133;-74
2022/07/28 06:54:23;;;;;;;7.80;5.85;;;;;;;23.77;88.95;97962.38;5010418;28;20038;-73
2022/07/28 06:56:48;;;;;;;19.05;6.68;;;;;;;23.97;87.25;97955.41;5010299;28;20026;-73
2022/07/28 06:59:14;;;;;;;8.40;5.82;;;;;;;24.14;85.75;97968.00;5010318;28;20156;-73
2022/07/28 07:01:40;;;;;;;8.85;5.53;;;;;;;24.05;85.27;97968.28;5010266;28;20099;-73
2022/07/28 07:04:07;;;;;;;8.20;5.45;;;;;;;24.00;85.77;97971.41;5010131;28;20041;-73
2022/07/28 07:06:32;;;;;;;9.25;5.30;;;;;;;24.31;85.89;97976.53;5010230;28;20386;-73
2022/07/28 07:08:58;;;;;;;8.00;5.00;;;;;;;24.55;81.38;97979.97;5010142;28;20038;-74
2022/07/28 07:11:23;;;;;;;6.03;4.90;;;;;;;24.13;82.53;97971.97;5010139;28;20080;-74
2022/07/28 07:13:51;;;;;;;8.65;5.05;;;;;;;24.14;81.91;97976.38;5010054;28;20041;-73
2022/07/28 07:16:17;;;;;;;6.97;5.28;;;;;;;24.47;79.17;97968.69;5010161;28;20437;-74
2022/07/28 07:18:42;;;;;;;11.18;5.35;;;;;;;24.46;79.04;97967.09;5013483;28;20033;-73
2022/07/28 07:21:07;;;;;;;6.38;4.85;;;;;;;24.60;78.01;97965.59;5013693;28;20030;-74
2022/07/28 07:23:34;;;;;;;10.38;5.03;;;;;;;24.50;77.99;97967.13;5013604;28;20045;-73
2022/07/28 07:25:59;;;;;;;7.90;4.85;;;;;;;24.39;79.22;97963.44;5013444;28;20459;-73
2022/07/28 07:28:24;;;;;;;6.65;5.18;;;;;;;24.91;77.31;97970.66;5013493;28;20030;-73
2022/07/28 07:30:50;;;;;;;5.97;4.57;;;;;;;24.98;74.60;97965.94;5013724;28;20026;-73
2022/07/28 07:33:15;;;;;;;5.90;4.60;;;;;;;25.21;72.69;97971.28;5013316;28;20537;-74
2022/07/28 07:35:41;;;;;;;6.28;4.25;;;;;;;25.47;72.46;97962.59;5013297;28;20065;-73
2022/07/28 07:38:06;;;;;;;5.55;4.63;;;;;;;26.38;68.72;97963.31;5013501;28;20046;-73
2022/07/28 07:40:32;;;;;;;6.80;4.88;;;;;;;26.28;69.39;97964.13;5013403;28;20022;-73
2022/07/28 07:42:57;;;;;;;8.18;5.20;;;;;;;25.62;72.37;97954.31;5013234;28;20034;-73
2022/07/28 07:45:22;;;;;;;8.63;5.55;;;;;;;25.87;72.34;97960.78;5013275;28;20022;-73
2022/07/28 07:47:49;;;;;;;9.35;4.40;;;;;;;25.99;69.09;97957.63;5013232;28;20065;-74
2022/07/28 07:50:14;;;;;;;5.82;4.63;;;;;;;25.91;68.68;97942.78;5013403;28;20080;-73
2022/07/28 07:52:39;;;;;;;5.93;4.18;;;;;;;26.45;66.91;97946.50;5013054;28;20125;-73
2022/07/28 07:55:05;;;;;;;5.78;4.70;;;;;;;27.13;63.31;97939.63;5013062;28;20159;-72
2022/07/28 07:57:30;;;;;;;5.63;4.45;;;;;;;27.08;60.98;97935.25;5012894;28;20414;-72
2022/07/28 07:59:56;;;;;;;6.00;4.20;;;;;;;26.96;58.55;97932.06;5013070;28;20129;-73
2022/07/28 08:02:21;;;;;;;5.97;4.57;;;;;;;27.07;58.57;97930.81;5013059;28;20026;-72
2022/07/28 08:04:46;;;;;;;9.10;7.00;;;;;;;27.29;58.67;97940.00;5012787;28;20314;-72
2022/07/28 08:07:12;;;;;;;8.85;6.18;;;;;;;26.77;59.81;97938.06;4995230;28;20721;-73
2022/07/28 08:09:37;;;;;;;5.93;4.43;;;;;;;27.18;58.47;97939.22;4995114;28;20033;-73
2022/07/28 08:12:03;;;;;;;106.85;64.63;;;;;;;27.82;56.25;97933.38;5012574;28;20028;-73
2022/07/28 08:14:28;;;;;;;33.53;21.98;;;;;;;27.90;56.54;97946.19;5012573;28;20395;-73
2022/07/28 08:16:55;;;;;;;10.55;5.18;;;;;;;28.31;54.77;97941.56;5013490;28;20532;-73
2022/07/28 08:19:21;;;;;;;6.22;4.45;;;;;;;27.61;55.69;97937.91;5012776;28;20026;-72
2022/07/28 08:21:46;;;;;;;7.30;5.55;;;;;;;28.52;53.54;97946.22;5012680;28;20038;-73
2022/07/28 08:24:11;;;;;;;9.00;7.05;;;;;;;29.85;49.18;97948.91;5011580;28;20120;-73
2022/07/28 08:26:37;;;;;;;7.20;4.20;;;;;;;30.95;46.29;97947.28;4994975;28;20109;-73
2022/07/28 08:29:02;;;;;;;7.60;5.20;;;;;;;31.22;43.45;97947.97;5011325;28;20164;-73
2022/07/28 08:31:28;;;;;;;5.30;4.20;;;;;;;30.28;44.55;97958.38;5012181;28;20023;-73
2022/07/28 08:33:54;;;;;;;6.88;5.65;;;;;;;30.01;44.99;97948.31;5012381;28;20033;-73
2022/07/28 08:36:19;;;;;;;6.57;4.50;;;;;;;29.39;45.84;97943.81;5012350;28;20037;-73
2022/07/28 08:38:45;;;;;;;6.57;5.32;;;;;;;28.16;49.26;97943.63;5012157;28;20049;-72
2022/07/28 08:41:27;;;;;;;13.88;10.70;;;;;;;27.49;50.63;97949.59;5012310;28;20104;-72
2022/07/28 08:43:54;;;;;;;7.05;4.63;;;;;;;27.04;52.25;97945.66;5009068;28;20042;-73
2022/07/28 08:46:21;;;;;;;7.25;4.20;;;;;;;27.50;50.54;97945.56;4994428;28;20116;-73
2022/07/28 08:48:49;;;;;;;5.03;4.18;;;;;;;27.31;51.19;97940.41;5012032;28;20104;-72
2022/07/28 08:51:17;;;;;;;7.43;4.32;;;;;;;27.05;51.95;97944.47;5011938;28;20157;-73
2022/07/28 08:53:42;;;;;;;5.68;4.47;;;;;;;26.78;52.80;97945.28;5011737;28;20038;-72
2022/07/28 08:56:12;;;;;;;5.57;4.22;;;;;;;26.68;52.75;97948.91;5011932;28;20076;-72
2022/07/28 08:58:38;;;;;;;5.47;4.50;;;;;;;26.99;51.95;97943.28;5011631;28;20033;-73
2022/07/28 09:01:07;;;;;;;4.97;3.72;;;;;;;29.80;44.62;97949.34;5012229;28;20030;-73
2022/07/28 09:03:33;;;;;;;7.18;4.28;;;;;;;29.44;44.64;97937.72;5019419;28;20025;-73
2022/07/28 09:05:59;;;;;;;4.93;3.78;;;;;;;28.62;47.04;97943.31;5016709;28;20052;-72
2022/07/28 09:08:25;;;;;;;6.78;4.20;;;;;;;29.00;46.90;97946.22;5011965;28;20034;-73
2022/07/28 09:10:51;;;;;;;6.70;4.22;;;;;;;31.24;42.07;97940.66;5011785;28;20041;-73
2022/07/28 09:13:18;;;;;;;5.15;4.25;;;;;;;30.73;42.37;97949.63;5011718;28;20506;-73
2022/07/28 09:15:45;;;;;;;5.85;4.20;;;;;;;29.92;43.80;97942.34;5011743;28;20064;-73
2022/07/28 09:18:12;;;;;;;8.77;4.10;;;;;;;28.68;46.39;97941.69;4994342;28;20069;-75
2022/07/28 09:20:38;;;;;;;4.88;4.38;;;;;;;27.94;48.71;97936.50;5011693;28;20060;-73
2022/07/28 09:23:06;;;;;;;5.55;3.90;;;;;;;27.08;51.16;97929.63;5011551;28;20022;-73
2022/07/28 09:25:32;;;;;;;6.97;4.53;;;;;;;27.15;51.40;97934.44;5011749;28;20034;-72
2022/07/28 09:28:07;;;;;;;7.53;4.25;;;;;;;27.34;50.84;97942.41;5011431;28;20044;-74
2022/07/28 09:30:35;;;;;;;8.43;4.60;;;;;;;29.74;45.49;97937.75;5011387;28;20064;-72
2022/07/28 09:33:21;;;;;;;6.35;4.22;;;;;;;30.29;43.03;97945.06;5011437;28;20030;-73
2022/07/28 09:35:50;;;;;;;5.20;4.40;;;;;;;29.34;45.26;97944.28;5011305;28;20133;-73
2022/07/28 09:45:07;;;;;;;4.55;3.60;;;;;;;32.32;38.98;97949.34;5011519;28;20096;-73
2022/07/28 09:47:33;;;;;;;4.60;4.00;;;;;;;33.89;35.51;97939.16;5010861;28;20037;-72
2022/07/28 09:50:00;;;;;;;7.63;4.15;;;;;;;35.25;32.93;97943.69;5010985;28;20558;-72
2022/07/28 09:52:34;;;;;;;5.72;3.83;;;;;;;34.89;33.01;97949.78;4992965;28;20026;-73
2022/07/28 09:55:05;;;;;;;6.50;4.63;;;;;;;33.25;35.22;97934.47;5010766;28;20427;-72
2022/07/28 09:57:33;;;;;;;4.20;3.75;;;;;;;32.31;37.39;97920.22;5010722;28;20511;-72
2022/07/28 09:59:58;;;;;;;5.40;4.07;;;;;;;34.22;34.21;97934.09;5015074;28;20474;-72
2022/07/28 10:02:25;;;;;;;8.32;4.13;;;;;;;34.78;33.05;97937.97;5015567;28;20028;-70
2022/07/28 10:04:52;;;;;;;6.22;4.85;;;;;;;34.61;33.40;97938.56;5016326;28;20480;-71
2022/07/28 10:07:18;;;;;;;5.93;4.70;;;;;;;35.00;32.29;97931.53;5011118;28;20037;-73
2022/07/28 10:09:58;;;;;;;5.22;4.13;;;;;;;35.44;31.40;97938.94;5010640;28;20053;-71
2022/07/28 10:12:32;;;;;;;5.13;3.80;;;;;;;34.47;33.04;97936.94;5010390;28;20435;-73
2022/07/28 10:16:09;;;;;;;4.53;4.00;;;;;;;32.98;34.07;97925.47;4993127;28;20034;-73
2022/07/28 10:17:55;;;;;;;4.88;3.97;;;;;;;33.27;33.80;97917.78;5010288;28;20030;-72
2022/07/28 10:20:21;;;;;;;4.95;4.40;;;;;;;34.58;31.38;97923.19;5010637;28;20191;-73
2022/07/28 10:22:48;;;;;;;5.97;4.03;;;;;;;32.37;34.93;97911.97;4993026;28;20033;-72
2022/07/28 10:25:15;;;;;;;4.65;4.20;;;;;;;33.20;34.21;97909.50;5010329;28;20037;-72
2022/07/28 10:27:43;;;;;;;4.93;4.30;;;;;;;32.50;35.03;97912.88;5010284;28;20037;-71
2022/07/28 10:30:11;;;;;;;5.15;4.53;;;;;;;32.73;35.12;97901.41;5010643;28;20434;-71
2022/07/28 10:32:43;;;;;;;9.02;4.53;;;;;;;34.32;32.14;97910.25;5010200;28;20026;-72
2022/07/28 10:35:16;;;;;;;5.28;4.30;;;;;;;33.98;32.62;97907.25;5010362;28;20026;-71
2022/07/28 10:37:51;;;;;;;6.93;4.80;;;;;;;31.82;36.63;97907.16;5010281;28;20497;-72
2022/07/28 10:40:21;;;;;;;6.63;4.45;;;;;;;31.69;37.36;97897.75;5010063;28;20546;-71
2022/07/28 10:42:46;;;;;;;4.78;3.97;;;;;;;32.66;35.35;97897.94;4976829;28;20034;-72
2022/07/28 10:45:12;;;;;;;4.72;4.20;;;;;;;32.03;37.64;97888.91;5010295;28;20030;-72
2022/07/28 10:47:38;;;;;;;6.15;4.35;;;;;;;30.52;40.15;97891.47;5010520;28;20036;-72
2022/07/28 10:50:04;;;;;;;4.47;3.97;;;;;;;29.59;41.94;97894.03;5010888;28;20026;-72
2022/07/28 10:52:32;;;;;;;5.68;4.45;;;;;;;29.18;41.91;97890.47;5012208;28;20589;-71
2022/07/28 10:55:19;;;;;;;5.68;3.92;;;;;;;29.00;41.97;97889.88;5014071;28;20095;-72
2022/07/28 10:58:02;;;;;;;5.18;3.70;;;;;;;28.84;43.03;97889.63;5014250;28;20022;-71
2022/07/28 11:00:31;;;;;;;5.60;4.30;;;;;;;29.34;41.66;97887.91;5014230;28;20100;-72
2022/07/28 11:03:00;;;;;;;4.50;3.75;;;;;;;29.45;41.31;97877.28;5014624;28;20140;-72
2022/07/28 11:05:27;;;;;;;5.15;3.83;;;;;;;29.49;40.55;97880.84;5014354;28;20026;-72
2022/07/28 11:07:53;;;;;;;4.30;3.83;;;;;;;29.32;41.34;97878.28;5014123;28;20084;-72
2022/07/28 11:10:19;;;;;;;4.35;3.95;;;;;;;29.07;41.29;97868.03;5014360;28;20033;-71
2022/07/28 11:12:51;;;;;;;6.25;3.90;;;;;;;30.18;39.23;97871.81;5013986;28;20395;-72
2022/07/28 11:15:33;;;;;;;6.55;4.13;;;;;;;29.63;39.76;97877.06;5014154;28;20022;-72
2022/07/28 11:18:08;;;;;;;5.00;3.67;;;;;;;29.36;40.49;97874.16;5015629;28;20037;-73
2022/07/28 11:20:52;;;;;;;7.90;3.90;;;;;;;28.69;42.02;97864.41;5023063;28;20030;-71
2022/07/28 11:23:38;;;;;;;7.20;4.25;;;;;;;28.22;42.61;97861.63;5014854;28;20163;-72
2022/07/28 11:26:16;;;;;;;5.53;3.90;;;;;;;28.57;42.13;97864.91;5013977;28;20113;-71
2022/07/28 11:28:57;;;;;;;5.28;4.00;;;;;;;28.48;41.83;97863.78;4996152;28;20029;-72
2022/07/28 11:31:45;;;;;;;21.70;13.48;;;;;;;29.13;40.78;97862.75;4996279;28;20026;-72
2022/07/28 11:34:22;;;;;;;5.70;4.03;;;;;;;29.15;41.31;97865.94;5013642;28;20034;-72
2022/07/28 11:36:56;;;;;;;5.53;4.10;;;;;;;29.03;40.25;97861.66;5013740;28;20065;-72
2022/07/28 11:39:35;;;;;;;5.65;4.07;;;;;;;28.60;41.03;97872.53;5013448;28;20050;-72
2022/07/28 11:42:22;;;;;;;5.07;4.15;;;;;;;28.39;41.28;97860.66;5013606;28;20034;-71
2022/07/28 11:44:48;;;;;;;9.82;4.22;;;;;;;28.69;40.66;97858.00;5013293;28;20034;-71